sensor_id;sensor_type;location;lat;lon;timestamp;P1;durP1;ratioP1;P2;durP2;ratioP2
3343;SDS011;1685;53.104;8.228;2023-07-08T00:00:13;6.03;;;5.17;;
3343;SDS011;1685;53.104;8.228;2023-07-08T00:02:43;7.00;;;4.80;;
3343;SDS011;1685;53.104;8.228;2023-07-08T00:05:10;6.83;;;4.63;;
3343;SDS011;1685;53.104;8.228;2023-07-08T00:07:38;5.97;;;4.93;;
3343;SDS011;1685;53.104;8.228;2023-07-08T00:10:10;7.60;;;5.00;;
3343;SDS011;1685;53.104;8.228;2023-07-08T00:12:39;9.30;;;5.10;;
3343;SDS011;1685;53.104;8.228;2023-07-08T00:15:07;5.90;;;4.80;;
3343;SDS011;1685;53.104;8.228;2023-07-08T00:17:34;6.60;;;4.70;;
3343;SDS011;1685;53.104;8.228;2023-07-08T00:20:04;6.20;;;4.60;;
3343;SDS011;1685;53.104;8.228;2023-07-08T00:22:36;6.23;;;4.70;;
3343;SDS011;1685;53.104;8.228;2023-07-08T00:25:04;6.67;;;5.80;;
3343;SDS011;1685;53.104;8.228;2023-07-08T00:27:31;7.63;;;5.17;;
3343;SDS011;1685;53.104;8.228;2023-07-08T00:29:58;5.50;;;4.67;;
3343;SDS011;1685;53.104;8.228;2023-07-08T00:32:26;7.40;;;5.57;;
3343;SDS011;1685;53.104;8.228;2023-07-08T00:34:53;8.50;;;5.00;;
3343;SDS011;1685;53.104;8.228;2023-07-08T00:37:21;10.87;;;5.00;;
3343;SDS011;1685;53.104;8.228;2023-07-08T00:39:48;4.97;;;4.47;;
3343;SDS011;1685;53.104;8.228;2023-07-08T00:42:16;8.40;;;5.23;;
3343;SDS011;1685;53.104;8.228;2023-07-08T00:44:44;8.03;;;5.23;;
3343;SDS011;1685;53.104;8.228;2023-07-08T00:47:12;7.27;;;5.63;;
3343;SDS011;1685;53.104;8.228;2023-07-08T00:49:42;8.60;;;4.97;;
3343;SDS011;1685;53.104;8.228;2023-07-08T00:52:18;6.33;;;5.17;;
3343;SDS011;1685;53.104;8.228;2023-07-08T00:54:50;7.13;;;5.30;;
3343;SDS011;1685;53.104;8.228;2023-07-08T00:57:17;11.80;;;6.10;;
3343;SDS011;1685;53.104;8.228;2023-07-08T00:59:46;10.10;;;5.60;;
3343;SDS011;1685;53.104;8.228;2023-07-08T01:02:19;11.40;;;6.33;;
3343;SDS011;1685;53.104;8.228;2023-07-08T01:04:49;8.50;;;5.97;;
3343;SDS011;1685;53.104;8.228;2023-07-08T01:07:19;8.13;;;6.00;;
3343;SDS011;1685;53.104;8.228;2023-07-08T01:09:48;7.97;;;5.80;;
3343;SDS011;1685;53.104;8.228;2023-07-08T01:12:20;7.43;;;5.47;;
3343;SDS011;1685;53.104;8.228;2023-07-08T01:14:48;8.37;;;5.80;;
3343;SDS011;1685;53.104;8.228;2023-07-08T01:17:18;12.67;;;5.90;;
3343;SDS011;1685;53.104;8.228;2023-07-08T01:19:45;7.63;;;5.60;;
3343;SDS011;1685;53.104;8.228;2023-07-08T01:22:14;7.60;;;6.67;;
3343;SDS011;1685;53.104;8.228;2023-07-08T01:24:41;7.50;;;6.80;;
3343;SDS011;1685;53.104;8.228;2023-07-08T01:27:10;12.00;;;6.60;;
3343;SDS011;1685;53.104;8.228;2023-07-08T01:29:39;11.57;;;6.07;;
3343;SDS011;1685;53.104;8.228;2023-07-08T01:32:06;7.53;;;5.87;;
3343;SDS011;1685;53.104;8.228;2023-07-08T01:34:43;13.30;;;6.00;;
3343;SDS011;1685;53.104;8.228;2023-07-08T01:37:26;12.43;;;6.70;;
3343;SDS011;1685;53.104;8.228;2023-07-08T01:40:13;12.27;;;6.20;;
3343;SDS011;1685;53.104;8.228;2023-07-08T01:42:52;8.73;;;6.53;;
3343;SDS011;1685;53.104;8.228;2023-07-08T01:45:19;6.77;;;6.00;;
3343;SDS011;1685;53.104;8.228;2023-07-08T01:47:48;10.63;;;6.27;;
3343;SDS011;1685;53.104;8.228;2023-07-08T01:50:18;7.07;;;6.07;;
3343;SDS011;1685;53.104;8.228;2023-07-08T01:52:47;9.57;;;6.73;;
3343;SDS011;1685;53.104;8.228;2023-07-08T01:55:15;11.33;;;6.07;;
3343;SDS011;1685;53.104;8.228;2023-07-08T01:57:48;11.30;;;7.20;;
3343;SDS011;1685;53.104;8.228;2023-07-08T02:00:17;8.63;;;7.20;;
3343;SDS011;1685;53.104;8.228;2023-07-08T02:02:44;8.00;;;5.87;;
3343;SDS011;1685;53.104;8.228;2023-07-08T02:05:11;7.10;;;6.10;;
3343;SDS011;1685;53.104;8.228;2023-07-08T02:07:38;9.20;;;6.77;;
3343;SDS011;1685;53.104;8.228;2023-07-08T02:10:08;7.90;;;7.13;;
3343;SDS011;1685;53.104;8.228;2023-07-08T02:12:35;8.37;;;6.17;;
3343;SDS011;1685;53.104;8.228;2023-07-08T02:15:02;8.53;;;6.60;;
3343;SDS011;1685;53.104;8.228;2023-07-08T02:17:30;8.27;;;6.67;;
3343;SDS011;1685;53.104;8.228;2023-07-08T02:19:57;9.10;;;6.43;;
3343;SDS011;1685;53.104;8.228;2023-07-08T02:22:24;11.53;;;6.73;;
3343;SDS011;1685;53.104;8.228;2023-07-08T02:24:51;9.63;;;6.53;;
3343;SDS011;1685;53.104;8.228;2023-07-08T02:27:20;8.00;;;6.70;;
3343;SDS011;1685;53.104;8.228;2023-07-08T02:29:47;9.00;;;7.40;;
3343;SDS011;1685;53.104;8.228;2023-07-08T02:32:14;9.10;;;7.50;;
3343;SDS011;1685;53.104;8.228;2023-07-08T02:34:41;13.40;;;7.37;;
3343;SDS011;1685;53.104;8.228;2023-07-08T02:37:08;9.17;;;6.90;;
3343;SDS011;1685;53.104;8.228;2023-07-08T02:39:35;10.50;;;7.97;;
3343;SDS011;1685;53.104;8.228;2023-07-08T02:42:02;9.17;;;7.00;;
3343;SDS011;1685;53.104;8.228;2023-07-08T02:44:31;9.60;;;7.37;;
3343;SDS011;1685;53.104;8.228;2023-07-08T02:46:57;7.70;;;6.90;;
3343;SDS011;1685;53.104;8.228;2023-07-08T02:49:25;9.77;;;7.80;;
3343;SDS011;1685;53.104;8.228;2023-07-08T02:51:52;8.47;;;7.67;;
3343;SDS011;1685;53.104;8.228;2023-07-08T02:54:19;7.00;;;6.40;;
3343;SDS011;1685;53.104;8.228;2023-07-08T02:56:46;9.43;;;7.23;;
3343;SDS011;1685;53.104;8.228;2023-07-08T02:59:13;8.70;;;7.53;;
3343;SDS011;1685;53.104;8.228;2023-07-08T03:01:41;8.50;;;7.50;;
3343;SDS011;1685;53.104;8.228;2023-07-08T03:04:08;9.37;;;7.37;;
3343;SDS011;1685;53.104;8.228;2023-07-08T03:06:37;8.93;;;7.90;;
3343;SDS011;1685;53.104;8.228;2023-07-08T03:09:04;8.17;;;7.37;;
3343;SDS011;1685;53.104;8.228;2023-07-08T03:11:32;9.07;;;8.20;;
3343;SDS011;1685;53.104;8.228;2023-07-08T03:13:59;8.53;;;7.10;;
3343;SDS011;1685;53.104;8.228;2023-07-08T03:16:26;9.90;;;8.87;;
3343;SDS011;1685;53.104;8.228;2023-07-08T03:18:54;9.70;;;7.80;;
3343;SDS011;1685;53.104;8.228;2023-07-08T03:21:21;8.43;;;7.63;;
3343;SDS011;1685;53.104;8.228;2023-07-08T03:23:48;13.60;;;7.93;;
3343;SDS011;1685;53.104;8.228;2023-07-08T03:26:16;8.87;;;7.80;;
3343;SDS011;1685;53.104;8.228;2023-07-08T03:28:44;11.37;;;8.03;;
3343;SDS011;1685;53.104;8.228;2023-07-08T03:31:11;8.80;;;7.73;;
3343;SDS011;1685;53.104;8.228;2023-07-08T03:33:38;13.93;;;8.30;;
3343;SDS011;1685;53.104;8.228;2023-07-08T03:36:09;12.60;;;7.77;;
3343;SDS011;1685;53.104;8.228;2023-07-08T03:38:38;11.07;;;8.20;;
3343;SDS011;1685;53.104;8.228;2023-07-08T03:41:05;9.10;;;8.13;;
3343;SDS011;1685;53.104;8.228;2023-07-08T03:43:32;8.93;;;8.03;;
3343;SDS011;1685;53.104;8.228;2023-07-08T03:45:59;11.83;;;9.20;;
3343;SDS011;1685;53.104;8.228;2023-07-08T03:48:26;11.50;;;8.73;;
3343;SDS011;1685;53.104;8.228;2023-07-08T03:50:53;9.93;;;8.40;;
3343;SDS011;1685;53.104;8.228;2023-07-08T03:53:22;16.03;;;7.47;;
3343;SDS011;1685;53.104;8.228;2023-07-08T03:55:50;8.83;;;7.77;;
3343;SDS011;1685;53.104;8.228;2023-07-08T03:58:17;10.27;;;7.90;;
3343;SDS011;1685;53.104;8.228;2023-07-08T04:00:44;10.10;;;7.07;;
3343;SDS011;1685;53.104;8.228;2023-07-08T04:03:11;8.90;;;8.00;;
3343;SDS011;1685;53.104;8.228;2023-07-08T04:05:38;8.60;;;7.80;;
3343;SDS011;1685;53.104;8.228;2023-07-08T04:08:05;9.27;;;8.30;;
3343;SDS011;1685;53.104;8.228;2023-07-08T04:10:33;8.50;;;7.60;;
3343;SDS011;1685;53.104;8.228;2023-07-08T04:13:00;10.77;;;8.30;;
3343;SDS011;1685;53.104;8.228;2023-07-08T04:15:27;7.53;;;6.83;;
3343;SDS011;1685;53.104;8.228;2023-07-08T04:17:54;8.87;;;7.00;;
3343;SDS011;1685;53.104;8.228;2023-07-08T04:20:22;11.27;;;7.70;;
3343;SDS011;1685;53.104;8.228;2023-07-08T04:22:49;8.03;;;7.23;;
3343;SDS011;1685;53.104;8.228;2023-07-08T04:25:17;8.37;;;7.20;;
3343;SDS011;1685;53.104;8.228;2023-07-08T04:27:46;11.77;;;8.33;;
3343;SDS011;1685;53.104;8.228;2023-07-08T04:30:15;9.20;;;8.10;;
3343;SDS011;1685;53.104;8.228;2023-07-08T04:32:47;7.87;;;7.07;;
3343;SDS011;1685;53.104;8.228;2023-07-08T04:35:14;9.03;;;8.13;;
3343;SDS011;1685;53.104;8.228;2023-07-08T04:37:41;10.80;;;8.00;;
3343;SDS011;1685;53.104;8.228;2023-07-08T04:40:10;10.63;;;7.87;;
3343;SDS011;1685;53.104;8.228;2023-07-08T04:42:46;18.93;;;7.90;;
3343;SDS011;1685;53.104;8.228;2023-07-08T04:45:15;10.10;;;8.20;;
3343;SDS011;1685;53.104;8.228;2023-07-08T04:47:42;10.90;;;7.53;;
3343;SDS011;1685;53.104;8.228;2023-07-08T04:50:12;12.83;;;7.97;;
3343;SDS011;1685;53.104;8.228;2023-07-08T04:52:39;10.87;;;7.13;;
3343;SDS011;1685;53.104;8.228;2023-07-08T04:55:06;13.20;;;8.10;;
3343;SDS011;1685;53.104;8.228;2023-07-08T04:57:34;9.57;;;7.70;;
3343;SDS011;1685;53.104;8.228;2023-07-08T05:00:04;15.70;;;7.70;;
3343;SDS011;1685;53.104;8.228;2023-07-08T05:02:35;7.70;;;6.40;;
3343;SDS011;1685;53.104;8.228;2023-07-08T05:05:02;10.80;;;7.67;;
3343;SDS011;1685;53.104;8.228;2023-07-08T05:07:29;11.47;;;7.63;;
3343;SDS011;1685;53.104;8.228;2023-07-08T05:09:57;11.27;;;7.70;;
3343;SDS011;1685;53.104;8.228;2023-07-08T05:12:25;10.37;;;8.00;;
3343;SDS011;1685;53.104;8.228;2023-07-08T05:14:52;12.27;;;8.10;;
3343;SDS011;1685;53.104;8.228;2023-07-08T05:17:20;10.57;;;7.93;;
3343;SDS011;1685;53.104;8.228;2023-07-08T05:19:47;8.37;;;7.03;;
3343;SDS011;1685;53.104;8.228;2023-07-08T05:22:16;10.83;;;8.47;;
3343;SDS011;1685;53.104;8.228;2023-07-08T05:24:43;8.07;;;6.60;;
3343;SDS011;1685;53.104;8.228;2023-07-08T05:27:10;10.00;;;7.77;;
3343;SDS011;1685;53.104;8.228;2023-07-08T05:29:38;11.07;;;7.57;;
3343;SDS011;1685;53.104;8.228;2023-07-08T05:32:06;15.50;;;7.53;;
3343;SDS011;1685;53.104;8.228;2023-07-08T05:34:34;8.63;;;6.60;;
3343;SDS011;1685;53.104;8.228;2023-07-08T05:37:01;11.20;;;6.30;;
3343;SDS011;1685;53.104;8.228;2023-07-08T05:39:28;7.67;;;6.93;;
3343;SDS011;1685;53.104;8.228;2023-07-08T05:41:56;11.47;;;7.13;;
3343;SDS011;1685;53.104;8.228;2023-07-08T05:44:23;8.50;;;7.33;;
3343;SDS011;1685;53.104;8.228;2023-07-08T05:46:50;16.43;;;7.17;;
3343;SDS011;1685;53.104;8.228;2023-07-08T05:49:17;11.60;;;6.13;;
3343;SDS011;1685;53.104;8.228;2023-07-08T05:51:46;9.10;;;7.20;;
3343;SDS011;1685;53.104;8.228;2023-07-08T05:54:13;11.70;;;6.23;;
3343;SDS011;1685;53.104;8.228;2023-07-08T05:56:40;15.00;;;5.87;;
3343;SDS011;1685;53.104;8.228;2023-07-08T05:59:07;15.30;;;7.40;;
3343;SDS011;1685;53.104;8.228;2023-07-08T06:01:35;13.13;;;6.80;;
3343;SDS011;1685;53.104;8.228;2023-07-08T06:04:02;8.37;;;5.80;;
3343;SDS011;1685;53.104;8.228;2023-07-08T06:06:29;7.67;;;6.53;;
3343;SDS011;1685;53.104;8.228;2023-07-08T06:08:57;10.93;;;6.83;;
3343;SDS011;1685;53.104;8.228;2023-07-08T06:11:25;6.43;;;5.80;;
3343;SDS011;1685;53.104;8.228;2023-07-08T06:13:52;7.63;;;6.37;;
3343;SDS011;1685;53.104;8.228;2023-07-08T06:16:19;8.70;;;6.00;;
3343;SDS011;1685;53.104;8.228;2023-07-08T06:18:46;14.17;;;6.43;;
3343;SDS011;1685;53.104;8.228;2023-07-08T06:21:13;8.27;;;6.40;;
3343;SDS011;1685;53.104;8.228;2023-07-08T06:23:40;8.53;;;5.17;;
3343;SDS011;1685;53.104;8.228;2023-07-08T06:26:09;11.20;;;5.90;;
3343;SDS011;1685;53.104;8.228;2023-07-08T06:28:35;13.80;;;6.70;;
3343;SDS011;1685;53.104;8.228;2023-07-08T06:31:03;7.67;;;5.57;;
3343;SDS011;1685;53.104;8.228;2023-07-08T06:33:30;7.27;;;5.10;;
3343;SDS011;1685;53.104;8.228;2023-07-08T06:35:57;6.33;;;5.20;;
3343;SDS011;1685;53.104;8.228;2023-07-08T06:38:24;5.47;;;4.97;;
3343;SDS011;1685;53.104;8.228;2023-07-08T06:40:51;6.20;;;5.60;;
3343;SDS011;1685;53.104;8.228;2023-07-08T06:43:19;5.93;;;5.00;;
3343;SDS011;1685;53.104;8.228;2023-07-08T06:45:46;7.13;;;4.60;;
3343;SDS011;1685;53.104;8.228;2023-07-08T06:48:13;4.83;;;4.43;;
3343;SDS011;1685;53.104;8.228;2023-07-08T06:50:41;6.17;;;4.70;;
3343;SDS011;1685;53.104;8.228;2023-07-08T06:53:09;4.73;;;4.33;;
3343;SDS011;1685;53.104;8.228;2023-07-08T06:55:36;8.93;;;4.70;;
3343;SDS011;1685;53.104;8.228;2023-07-08T06:58:03;6.40;;;4.50;;
3343;SDS011;1685;53.104;8.228;2023-07-08T07:00:31;10.03;;;4.57;;
3343;SDS011;1685;53.104;8.228;2023-07-08T07:02:58;5.83;;;3.83;;
3343;SDS011;1685;53.104;8.228;2023-07-08T07:05:25;5.07;;;3.87;;
3343;SDS011;1685;53.104;8.228;2023-07-08T07:07:53;5.80;;;4.10;;
3343;SDS011;1685;53.104;8.228;2023-07-08T07:10:21;5.23;;;4.73;;
3343;SDS011;1685;53.104;8.228;2023-07-08T07:12:49;6.83;;;4.00;;
3343;SDS011;1685;53.104;8.228;2023-07-08T07:15:16;5.57;;;4.23;;
3343;SDS011;1685;53.104;8.228;2023-07-08T07:17:44;6.90;;;3.90;;
3343;SDS011;1685;53.104;8.228;2023-07-08T07:20:11;8.97;;;4.17;;
3343;SDS011;1685;53.104;8.228;2023-07-08T07:22:38;4.13;;;3.83;;
3343;SDS011;1685;53.104;8.228;2023-07-08T07:25:06;4.43;;;4.03;;
3343;SDS011;1685;53.104;8.228;2023-07-08T07:27:33;5.37;;;3.90;;
3343;SDS011;1685;53.104;8.228;2023-07-08T07:30:00;4.70;;;4.23;;
3343;SDS011;1685;53.104;8.228;2023-07-08T07:32:27;6.47;;;4.40;;
3343;SDS011;1685;53.104;8.228;2023-07-08T07:34:58;4.43;;;4.03;;
3343;SDS011;1685;53.104;8.228;2023-07-08T07:37:25;7.50;;;4.13;;
3343;SDS011;1685;53.104;8.228;2023-07-08T07:39:52;3.17;;;2.97;;
3343;SDS011;1685;53.104;8.228;2023-07-08T07:42:19;7.43;;;3.80;;
3343;SDS011;1685;53.104;8.228;2023-07-08T07:44:46;4.27;;;3.87;;
3343;SDS011;1685;53.104;8.228;2023-07-08T07:47:14;4.30;;;3.90;;
3343;SDS011;1685;53.104;8.228;2023-07-08T07:49:41;3.70;;;3.37;;
3343;SDS011;1685;53.104;8.228;2023-07-08T07:52:09;6.23;;;3.90;;
3343;SDS011;1685;53.104;8.228;2023-07-08T07:54:36;4.00;;;3.70;;
3343;SDS011;1685;53.104;8.228;2023-07-08T07:57:04;7.47;;;4.00;;
3343;SDS011;1685;53.104;8.228;2023-07-08T07:59:31;4.00;;;3.30;;
3343;SDS011;1685;53.104;8.228;2023-07-08T08:01:58;4.53;;;3.93;;
3343;SDS011;1685;53.104;8.228;2023-07-08T08:04:25;4.40;;;3.90;;
3343;SDS011;1685;53.104;8.228;2023-07-08T08:06:52;5.50;;;3.63;;
3343;SDS011;1685;53.104;8.228;2023-07-08T08:09:21;6.90;;;4.60;;
3343;SDS011;1685;53.104;8.228;2023-07-08T08:11:48;5.33;;;4.03;;
3343;SDS011;1685;53.104;8.228;2023-07-08T08:14:17;3.97;;;3.57;;
3343;SDS011;1685;53.104;8.228;2023-07-08T08:16:44;5.20;;;3.50;;
3343;SDS011;1685;53.104;8.228;2023-07-08T08:19:11;5.43;;;4.07;;
3343;SDS011;1685;53.104;8.228;2023-07-08T08:21:38;55.60;;;5.43;;
3343;SDS011;1685;53.104;8.228;2023-07-08T08:24:05;7.33;;;3.80;;
3343;SDS011;1685;53.104;8.228;2023-07-08T08:26:34;5.90;;;3.50;;
3343;SDS011;1685;53.104;8.228;2023-07-08T08:29:02;4.10;;;3.60;;
3343;SDS011;1685;53.104;8.228;2023-07-08T08:31:29;6.80;;;3.63;;
3343;SDS011;1685;53.104;8.228;2023-07-08T08:33:56;3.73;;;3.43;;
3343;SDS011;1685;53.104;8.228;2023-07-08T08:36:23;3.93;;;3.37;;
3343;SDS011;1685;53.104;8.228;2023-07-08T08:38:50;5.10;;;3.60;;
3343;SDS011;1685;53.104;8.228;2023-07-08T08:41:18;4.20;;;3.30;;
3343;SDS011;1685;53.104;8.228;2023-07-08T08:43:59;4.10;;;3.70;;
3343;SDS011;1685;53.104;8.228;2023-07-08T08:46:30;3.57;;;3.20;;
3343;SDS011;1685;53.104;8.228;2023-07-08T08:49:05;5.17;;;3.67;;
3343;SDS011;1685;53.104;8.228;2023-07-08T08:51:42;8.93;;;3.87;;
3343;SDS011;1685;53.104;8.228;2023-07-08T08:54:09;3.97;;;3.17;;
3343;SDS011;1685;53.104;8.228;2023-07-08T08:56:39;3.83;;;3.53;;
3343;SDS011;1685;53.104;8.228;2023-07-08T08:59:16;4.20;;;3.80;;
3343;SDS011;1685;53.104;8.228;2023-07-08T09:01:50;4.53;;;3.20;;
3343;SDS011;1685;53.104;8.228;2023-07-08T09:04:20;6.00;;;3.90;;
3343;SDS011;1685;53.104;8.228;2023-07-08T09:06:51;4.90;;;3.67;;
3343;SDS011;1685;53.104;8.228;2023-07-08T09:09:35;4.13;;;3.73;;
3343;SDS011;1685;53.104;8.228;2023-07-08T09:12:09;5.73;;;4.10;;
3343;SDS011;1685;53.104;8.228;2023-07-08T09:14:42;5.87;;;3.23;;
3343;SDS011;1685;53.104;8.228;2023-07-08T09:17:14;6.43;;;4.00;;
3343;SDS011;1685;53.104;8.228;2023-07-08T09:19:44;3.87;;;3.57;;
3343;SDS011;1685;53.104;8.228;2023-07-08T09:22:16;7.67;;;3.10;;
3343;SDS011;1685;53.104;8.228;2023-07-08T09:24:48;7.57;;;3.97;;
3343;SDS011;1685;53.104;8.228;2023-07-08T09:27:17;4.20;;;3.73;;
3343;SDS011;1685;53.104;8.228;2023-07-08T09:29:45;4.17;;;3.60;;
3343;SDS011;1685;53.104;8.228;2023-07-08T09:32:14;4.03;;;3.63;;
3343;SDS011;1685;53.104;8.228;2023-07-08T09:34:43;3.40;;;3.10;;
3343;SDS011;1685;53.104;8.228;2023-07-08T09:37:20;6.17;;;3.60;;
3343;SDS011;1685;53.104;8.228;2023-07-08T09:39:50;3.50;;;3.20;;
3343;SDS011;1685;53.104;8.228;2023-07-08T09:42:18;3.57;;;3.27;;
3343;SDS011;1685;53.104;8.228;2023-07-08T09:44:48;3.83;;;3.53;;
3343;SDS011;1685;53.104;8.228;2023-07-08T09:47:22;5.07;;;3.27;;
3343;SDS011;1685;53.104;8.228;2023-07-08T09:49:50;4.53;;;3.63;;
3343;SDS011;1685;53.104;8.228;2023-07-08T09:52:18;9.00;;;3.67;;
3343;SDS011;1685;53.104;8.228;2023-07-08T09:54:45;3.33;;;3.13;;
3343;SDS011;1685;53.104;8.228;2023-07-08T09:57:16;4.70;;;3.77;;
3343;SDS011;1685;53.104;8.228;2023-07-08T09:59:54;4.00;;;3.07;;
3343;SDS011;1685;53.104;8.228;2023-07-08T10:02:25;7.87;;;3.40;;
3343;SDS011;1685;53.104;8.228;2023-07-08T10:04:56;3.60;;;3.30;;
3343;SDS011;1685;53.104;8.228;2023-07-08T10:07:27;6.30;;;3.67;;
3343;SDS011;1685;53.104;8.228;2023-07-08T10:09:56;3.93;;;3.63;;
3343;SDS011;1685;53.104;8.228;2023-07-08T10:12:25;9.43;;;3.33;;
3343;SDS011;1685;53.104;8.228;2023-07-08T10:14:54;4.83;;;3.97;;
3343;SDS011;1685;53.104;8.228;2023-07-08T10:17:25;3.93;;;3.03;;
3343;SDS011;1685;53.104;8.228;2023-07-08T10:19:52;4.27;;;3.53;;
3343;SDS011;1685;53.104;8.228;2023-07-08T10:22:30;3.47;;;3.17;;
3343;SDS011;1685;53.104;8.228;2023-07-08T10:25:08;4.73;;;3.50;;
3343;SDS011;1685;53.104;8.228;2023-07-08T10:27:40;5.23;;;3.50;;
3343;SDS011;1685;53.104;8.228;2023-07-08T10:30:16;4.80;;;3.60;;
3343;SDS011;1685;53.104;8.228;2023-07-08T10:36:07;4.03;;;3.40;;
3343;SDS011;1685;53.104;8.228;2023-07-08T10:38:46;3.70;;;3.50;;
3343;SDS011;1685;53.104;8.228;2023-07-08T10:41:22;4.57;;;3.60;;
3343;SDS011;1685;53.104;8.228;2023-07-08T10:43:59;5.77;;;3.40;;
3343;SDS011;1685;53.104;8.228;2023-07-08T10:46:37;4.00;;;3.17;;
3343;SDS011;1685;53.104;8.228;2023-07-08T10:49:18;15.50;;;4.30;;
3343;SDS011;1685;53.104;8.228;2023-07-08T10:52:18;5.37;;;3.30;;
3343;SDS011;1685;53.104;8.228;2023-07-08T10:55:10;4.63;;;3.27;;
3343;SDS011;1685;53.104;8.228;2023-07-08T11:00:52;4.40;;;3.70;;
3343;SDS011;1685;53.104;8.228;2023-07-08T11:03:34;6.20;;;3.83;;
3343;SDS011;1685;53.104;8.228;2023-07-08T11:06:16;3.67;;;3.37;;
3343;SDS011;1685;53.104;8.228;2023-07-08T11:08:46;4.90;;;3.50;;
3343;SDS011;1685;53.104;8.228;2023-07-08T11:11:20;3.47;;;3.13;;
3343;SDS011;1685;53.104;8.228;2023-07-08T11:13:58;3.30;;;3.00;;
3343;SDS011;1685;53.104;8.228;2023-07-08T11:16:31;4.10;;;3.27;;
3343;SDS011;1685;53.104;8.228;2023-07-08T11:19:04;3.63;;;2.93;;
3343;SDS011;1685;53.104;8.228;2023-07-08T11:21:35;4.83;;;3.20;;
3343;SDS011;1685;53.104;8.228;2023-07-08T11:24:06;7.20;;;3.93;;
3343;SDS011;1685;53.104;8.228;2023-07-08T11:26:41;4.37;;;3.40;;
3343;SDS011;1685;53.104;8.228;2023-07-08T11:29:14;3.87;;;3.50;;
3343;SDS011;1685;53.104;8.228;2023-07-08T11:31:44;4.13;;;3.10;;
3343;SDS011;1685;53.104;8.228;2023-07-08T11:34:15;4.23;;;3.83;;
3343;SDS011;1685;53.104;8.228;2023-07-08T11:36:44;4.47;;;4.10;;
3343;SDS011;1685;53.104;8.228;2023-07-08T11:39:31;5.90;;;3.30;;
3343;SDS011;1685;53.104;8.228;2023-07-08T11:45:00;4.20;;;3.90;;
3343;SDS011;1685;53.104;8.228;2023-07-08T11:47:32;6.47;;;3.80;;
3343;SDS011;1685;53.104;8.228;2023-07-08T11:50:03;3.23;;;3.03;;
3343;SDS011;1685;53.104;8.228;2023-07-08T11:52:49;4.63;;;3.40;;
3343;SDS011;1685;53.104;8.228;2023-07-08T11:55:21;6.13;;;3.80;;
3343;SDS011;1685;53.104;8.228;2023-07-08T11:57:54;3.53;;;3.23;;
3343;SDS011;1685;53.104;8.228;2023-07-08T12:00:23;3.83;;;3.53;;
3343;SDS011;1685;53.104;8.228;2023-07-08T12:02:55;5.87;;;3.80;;
3343;SDS011;1685;53.104;8.228;2023-07-08T12:05:31;3.77;;;3.47;;
3343;SDS011;1685;53.104;8.228;2023-07-08T12:08:00;5.00;;;3.70;;
3343;SDS011;1685;53.104;8.228;2023-07-08T12:10:31;3.70;;;3.50;;
3343;SDS011;1685;53.104;8.228;2023-07-08T12:13:01;3.60;;;3.30;;
3343;SDS011;1685;53.104;8.228;2023-07-08T12:15:29;3.67;;;3.40;;
3343;SDS011;1685;53.104;8.228;2023-07-08T12:17:59;4.63;;;3.83;;
3343;SDS011;1685;53.104;8.228;2023-07-08T12:20:29;6.40;;;3.63;;
3343;SDS011;1685;53.104;8.228;2023-07-08T12:23:00;4.40;;;3.50;;
3343;SDS011;1685;53.104;8.228;2023-07-08T12:25:29;3.23;;;3.03;;
3343;SDS011;1685;53.104;8.228;2023-07-08T12:27:59;7.90;;;3.97;;
3343;SDS011;1685;53.104;8.228;2023-07-08T12:30:27;3.47;;;3.27;;
3343;SDS011;1685;53.104;8.228;2023-07-08T12:32:55;6.00;;;3.70;;
3343;SDS011;1685;53.104;8.228;2023-07-08T12:35:24;4.30;;;3.90;;
3343;SDS011;1685;53.104;8.228;2023-07-08T12:37:55;4.07;;;3.67;;
3343;SDS011;1685;53.104;8.228;2023-07-08T12:40:25;4.33;;;3.53;;
3343;SDS011;1685;53.104;8.228;2023-07-08T12:42:52;4.70;;;3.47;;
3343;SDS011;1685;53.104;8.228;2023-07-08T12:45:21;4.10;;;3.80;;
3343;SDS011;1685;53.104;8.228;2023-07-08T12:47:50;3.73;;;3.43;;
3343;SDS011;1685;53.104;8.228;2023-07-08T12:50:17;4.13;;;3.57;;
3343;SDS011;1685;53.104;8.228;2023-07-08T12:52:45;4.60;;;4.20;;
3343;SDS011;1685;53.104;8.228;2023-07-08T12:55:14;5.70;;;4.03;;
3343;SDS011;1685;53.104;8.228;2023-07-08T12:57:43;6.37;;;3.70;;
3343;SDS011;1685;53.104;8.228;2023-07-08T13:00:14;4.30;;;4.00;;
3343;SDS011;1685;53.104;8.228;2023-07-08T13:02:52;4.70;;;3.90;;
3343;SDS011;1685;53.104;8.228;2023-07-08T13:05:23;9.80;;;4.30;;
3343;SDS011;1685;53.104;8.228;2023-07-08T13:07:50;4.40;;;4.10;;
3343;SDS011;1685;53.104;8.228;2023-07-08T13:10:20;5.13;;;4.10;;
3343;SDS011;1685;53.104;8.228;2023-07-08T13:12:51;7.50;;;4.10;;
3343;SDS011;1685;53.104;8.228;2023-07-08T13:15:23;4.40;;;3.77;;
3343;SDS011;1685;53.104;8.228;2023-07-08T13:17:54;4.13;;;3.70;;
3343;SDS011;1685;53.104;8.228;2023-07-08T13:20:21;5.47;;;3.90;;
3343;SDS011;1685;53.104;8.228;2023-07-08T13:22:51;4.43;;;3.80;;
3343;SDS011;1685;53.104;8.228;2023-07-08T13:25:27;4.57;;;4.17;;
3343;SDS011;1685;53.104;8.228;2023-07-08T13:27:56;5.03;;;4.00;;
3343;SDS011;1685;53.104;8.228;2023-07-08T13:30:25;6.83;;;4.27;;
3343;SDS011;1685;53.104;8.228;2023-07-08T13:32:54;6.97;;;3.90;;
3343;SDS011;1685;53.104;8.228;2023-07-08T13:35:22;5.57;;;4.30;;
3343;SDS011;1685;53.104;8.228;2023-07-08T13:37:50;4.63;;;4.23;;
3343;SDS011;1685;53.104;8.228;2023-07-08T13:40:17;4.93;;;4.50;;
3343;SDS011;1685;53.104;8.228;2023-07-08T13:42:49;6.63;;;3.73;;
3343;SDS011;1685;53.104;8.228;2023-07-08T13:45:21;7.23;;;4.20;;
3343;SDS011;1685;53.104;8.228;2023-07-08T13:48:08;4.70;;;4.30;;
3343;SDS011;1685;53.104;8.228;2023-07-08T13:50:42;4.93;;;3.87;;
3343;SDS011;1685;53.104;8.228;2023-07-08T13:53:15;5.70;;;4.00;;
3343;SDS011;1685;53.104;8.228;2023-07-08T13:55:44;4.23;;;3.90;;
3343;SDS011;1685;53.104;8.228;2023-07-08T13:58:15;4.37;;;3.97;;
3343;SDS011;1685;53.104;8.228;2023-07-08T14:00:43;7.03;;;4.03;;
3343;SDS011;1685;53.104;8.228;2023-07-08T14:03:11;3.90;;;3.60;;
3343;SDS011;1685;53.104;8.228;2023-07-08T14:05:40;6.13;;;3.80;;
3343;SDS011;1685;53.104;8.228;2023-07-08T14:08:10;4.07;;;3.77;;
3343;SDS011;1685;53.104;8.228;2023-07-08T14:10:39;4.60;;;4.20;;
3343;SDS011;1685;53.104;8.228;2023-07-08T14:13:06;9.23;;;4.10;;
3343;SDS011;1685;53.104;8.228;2023-07-08T14:15:37;4.23;;;3.93;;
3343;SDS011;1685;53.104;8.228;2023-07-08T14:18:04;4.57;;;4.17;;
3343;SDS011;1685;53.104;8.228;2023-07-08T14:20:32;6.80;;;4.53;;
3343;SDS011;1685;53.104;8.228;2023-07-08T14:22:59;9.23;;;4.50;;
3343;SDS011;1685;53.104;8.228;2023-07-08T14:25:26;3.80;;;3.50;;
3343;SDS011;1685;53.104;8.228;2023-07-08T14:27:53;4.40;;;4.00;;
3343;SDS011;1685;53.104;8.228;2023-07-08T14:30:20;4.17;;;3.80;;
3343;SDS011;1685;53.104;8.228;2023-07-08T14:32:49;4.50;;;4.10;;
3343;SDS011;1685;53.104;8.228;2023-07-08T14:35:17;7.60;;;4.27;;
3343;SDS011;1685;53.104;8.228;2023-07-08T14:37:48;8.70;;;4.77;;
3343;SDS011;1685;53.104;8.228;2023-07-08T14:40:24;9.83;;;4.30;;
3343;SDS011;1685;53.104;8.228;2023-07-08T14:42:55;5.27;;;4.30;;
3343;SDS011;1685;53.104;8.228;2023-07-08T14:45:25;5.00;;;4.20;;
3343;SDS011;1685;53.104;8.228;2023-07-08T14:47:55;4.23;;;3.90;;
3343;SDS011;1685;53.104;8.228;2023-07-08T14:50:22;4.53;;;3.57;;
3343;SDS011;1685;53.104;8.228;2023-07-08T14:52:50;4.83;;;4.00;;
3343;SDS011;1685;53.104;8.228;2023-07-08T14:55:17;9.50;;;4.57;;
3343;SDS011;1685;53.104;8.228;2023-07-08T14:57:45;6.67;;;4.20;;
3343;SDS011;1685;53.104;8.228;2023-07-08T15:00:14;4.23;;;3.93;;
3343;SDS011;1685;53.104;8.228;2023-07-08T15:02:43;9.33;;;4.30;;
3343;SDS011;1685;53.104;8.228;2023-07-08T15:05:17;6.10;;;3.50;;
3343;SDS011;1685;53.104;8.228;2023-07-08T15:07:47;4.20;;;3.90;;
3343;SDS011;1685;53.104;8.228;2023-07-08T15:10:15;4.53;;;3.90;;
3343;SDS011;1685;53.104;8.228;2023-07-08T15:12:42;6.87;;;3.83;;
3343;SDS011;1685;53.104;8.228;2023-07-08T15:15:13;4.10;;;3.80;;
3343;SDS011;1685;53.104;8.228;2023-07-08T15:17:42;4.90;;;3.20;;
3343;SDS011;1685;53.104;8.228;2023-07-08T15:20:09;4.97;;;4.50;;
3343;SDS011;1685;53.104;8.228;2023-07-08T15:22:41;4.10;;;3.80;;
3343;SDS011;1685;53.104;8.228;2023-07-08T15:25:09;4.37;;;3.97;;
3343;SDS011;1685;53.104;8.228;2023-07-08T15:27:37;5.30;;;4.80;;
3343;SDS011;1685;53.104;8.228;2023-07-08T15:30:04;6.23;;;4.60;;
3343;SDS011;1685;53.104;8.228;2023-07-08T15:32:41;7.50;;;4.23;;
3343;SDS011;1685;53.104;8.228;2023-07-08T15:35:12;5.60;;;4.90;;